createdAt,value
2022-08-16T00:01:56.368Z,19.70
2022-08-16T00:04:27.830Z,19.60
2022-08-16T00:06:55.917Z,19.60
2022-08-16T00:09:24.134Z,19.50
2022-08-16T00:11:55.407Z,19.50
2022-08-16T00:14:29.229Z,19.40
2022-08-16T00:17:15.926Z,19.40
2022-08-16T00:19:46.425Z,19.40
2022-08-16T00:22:15.446Z,19.40
2022-08-16T00:24:44.762Z,19.50
2022-08-16T00:27:17.405Z,19.40
2022-08-16T00:29:45.821Z,19.50
2022-08-16T00:32:18.249Z,19.40
2022-08-16T00:34:53.249Z,19.50
2022-08-16T00:37:24.109Z,19.50
2022-08-16T00:39:58.662Z,19.50
2022-08-16T00:42:31.817Z,19.40
2022-08-16T00:45:06.261Z,19.40
2022-08-16T00:47:35.098Z,19.30
2022-08-16T00:50:11.555Z,19.30
2022-08-16T00:52:51.066Z,19.30
2022-08-16T00:55:20.727Z,19.30
2022-08-16T00:58:00.087Z,19.20
2022-08-16T01:00:29.865Z,19.20
2022-08-16T01:02:59.661Z,19.20
2022-08-16T01:05:27.983Z,19.20
2022-08-16T01:07:57.452Z,19.20
2022-08-16T01:10:32.781Z,19.10
2022-08-16T01:13:05.505Z,19.10
2022-08-16T01:15:34.294Z,19.10
2022-08-16T01:18:04.298Z,19.20
2022-08-16T01:20:34.115Z,19.10
2022-08-16T01:23:08.518Z,19.00
2022-08-16T01:25:39.679Z,19.00
2022-08-16T01:28:08.904Z,18.90
2022-08-16T01:30:40.108Z,19.00
2022-08-16T01:33:19.291Z,19.00
2022-08-16T01:35:52.593Z,19.00
2022-08-16T01:38:25.826Z,18.90
2022-08-16T01:41:01.942Z,19.00
2022-08-16T01:43:31.547Z,19.00
2022-08-16T01:46:00.010Z,18.80
2022-08-16T01:48:48.422Z,18.80
2022-08-16T01:51:17.472Z,18.80
2022-08-16T01:53:45.362Z,18.80
2022-08-16T01:56:25.487Z,18.80
2022-08-16T01:58:54.714Z,18.80
2022-08-16T02:01:22.958Z,18.60
2022-08-16T02:03:51.790Z,18.50
2022-08-16T02:06:33.905Z,18.60
2022-08-16T02:09:05.461Z,18.60
2022-08-16T02:11:48.164Z,18.60
2022-08-16T02:14:21.581Z,18.60
2022-08-16T02:16:49.725Z,18.60
2022-08-16T02:19:18.465Z,18.50
2022-08-16T02:22:08.667Z,18.50
2022-08-16T02:24:41.986Z,18.50
2022-08-16T02:27:12.322Z,18.50
2022-08-16T02:29:41.282Z,18.50
2022-08-16T02:32:50.941Z,18.40
2022-08-16T02:34:58.318Z,18.30
2022-08-16T02:37:44.753Z,18.40
2022-08-16T02:40:16.814Z,18.40
2022-08-16T02:42:49.729Z,18.30
2022-08-16T02:45:18.239Z,18.30
2022-08-16T02:48:00.184Z,18.40
2022-08-16T02:51:03.226Z,18.30
2022-08-16T02:53:18.011Z,18.40
2022-08-16T02:55:46.752Z,18.30
2022-08-16T02:58:19.836Z,18.30
2022-08-16T03:00:55.942Z,18.30
2022-08-16T03:03:24.915Z,18.30
2022-08-16T03:05:53.232Z,18.30
2022-08-16T03:08:50.737Z,18.30
2022-08-16T03:11:16.705Z,18.30
2022-08-16T03:13:47.950Z,18.30
2022-08-16T03:16:38.542Z,18.30
2022-08-16T03:19:07.365Z,18.10
2022-08-16T03:21:38.254Z,18.10
2022-08-16T03:24:27.652Z,18.20
2022-08-16T03:26:58.130Z,18.10
2022-08-16T03:29:30.131Z,18.10
2022-08-16T03:31:59.065Z,18.10
2022-08-16T03:34:27.961Z,18.10
2022-08-16T03:36:55.899Z,18.10
2022-08-16T03:39:23.810Z,18.10
2022-08-16T03:41:59.652Z,18.00
2022-08-16T03:44:44.809Z,18.10
2022-08-16T03:47:19.722Z,18.10
2022-08-16T03:49:51.375Z,18.00
2022-08-16T03:52:20.310Z,18.00
2022-08-16T03:54:53.553Z,18.00
2022-08-16T03:57:32.162Z,18.00
2022-08-16T04:00:20.834Z,18.00
2022-08-16T04:03:02.765Z,18.00
2022-08-16T04:05:33.704Z,18.00
2022-08-16T04:08:23.831Z,18.00
2022-08-16T04:10:51.747Z,17.90
2022-08-16T04:13:20.596Z,17.90
2022-08-16T04:16:09.558Z,17.90
2022-08-16T04:19:02.486Z,17.90
2022-08-16T04:21:32.334Z,17.90
2022-08-16T04:24:00.593Z,17.90
2022-08-16T04:26:31.102Z,17.90
2022-08-16T04:29:16.297Z,17.90
2022-08-16T04:31:56.460Z,17.90
2022-08-16T04:34:27.154Z,17.90
2022-08-16T04:36:55.128Z,17.90
2022-08-16T04:39:25.176Z,18.00
2022-08-16T04:42:11.426Z,18.00
2022-08-16T04:44:54.448Z,18.00
2022-08-16T04:47:33.372Z,18.00
2022-08-16T04:50:05.199Z,18.00
2022-08-16T04:52:35.828Z,17.90
2022-08-16T04:55:06.205Z,17.90
2022-08-16T04:57:34.174Z,17.90
2022-08-16T05:00:30.399Z,18.00
2022-08-16T05:02:56.083Z,18.00
2022-08-16T05:05:24.381Z,18.00
2022-08-16T05:07:57.733Z,18.00
2022-08-16T05:10:28.528Z,18.00
2022-08-16T05:12:57.748Z,17.90
2022-08-16T05:15:25.827Z,17.90
2022-08-16T05:17:59.030Z,18.00
2022-08-16T05:20:39.325Z,18.00
2022-08-16T05:23:13.815Z,18.10
2022-08-16T05:25:48.594Z,18.10
2022-08-16T05:28:17.203Z,18.10
2022-08-16T05:30:45.463Z,18.20
2022-08-16T05:33:21.129Z,18.30
2022-08-16T05:35:54.565Z,18.30
2022-08-16T05:38:32.204Z,18.40
2022-08-16T05:41:04.902Z,18.50
2022-08-16T05:43:43.405Z,18.50
2022-08-16T05:46:30.503Z,18.60
2022-08-16T05:49:05.687Z,18.60
2022-08-16T05:51:40.056Z,18.70
2022-08-16T05:54:11.314Z,18.80
2022-08-16T05:56:39.873Z,18.90
2022-08-16T05:59:07.992Z,19.00
2022-08-16T06:01:37.860Z,19.10
2022-08-16T06:04:13.403Z,19.20
2022-08-16T06:06:57.406Z,19.30
2022-08-16T06:09:42.800Z,19.50
2022-08-16T06:12:11.717Z,19.60
2022-08-16T06:14:40.050Z,19.70
2022-08-16T06:17:08.225Z,19.80
2022-08-16T06:19:39.533Z,19.90
2022-08-16T06:22:09.718Z,20.00
2022-08-16T06:24:54.746Z,20.10
2022-08-16T06:27:23.596Z,20.40
2022-08-16T06:29:51.933Z,20.50
2022-08-16T06:32:27.404Z,20.60
2022-08-16T06:35:02.822Z,20.70
2022-08-16T06:37:37.447Z,20.80
2022-08-16T06:40:12.954Z,20.90
2022-08-16T06:42:55.348Z,21.20
2022-08-16T06:45:29.098Z,21.20
2022-08-16T06:47:57.276Z,21.50
2022-08-16T06:50:29.470Z,21.70
2022-08-16T06:53:00.328Z,21.80
2022-08-16T06:55:34.180Z,22.00
2022-08-16T06:58:08.536Z,22.10
2022-08-16T07:00:37.977Z,22.20
2022-08-16T07:03:26.791Z,22.50
2022-08-16T07:05:58.023Z,22.90
2022-08-16T07:08:27.316Z,23.00
2022-08-16T07:10:55.610Z,23.10
2022-08-16T07:13:58.580Z,23.00
2022-08-16T07:16:15.477Z,23.30
2022-08-16T07:18:58.794Z,23.60
2022-08-16T07:21:45.891Z,23.90
2022-08-16T07:24:30.306Z,23.70
2022-08-16T07:26:59.151Z,23.40
2022-08-16T07:29:31.848Z,23.20
2022-08-16T07:32:00.539Z,23.50
2022-08-16T07:34:35.599Z,23.90
2022-08-16T07:37:07.608Z,24.20
2022-08-16T07:39:35.541Z,24.40
2022-08-16T07:42:20.260Z,24.60
2022-08-16T07:44:57.199Z,24.60
2022-08-16T07:47:32.008Z,24.90
2022-08-16T07:50:05.662Z,25.20
2022-08-16T07:52:38.934Z,25.60
2022-08-16T07:55:07.613Z,25.70
2022-08-16T07:57:44.543Z,25.80
2022-08-16T08:00:26.567Z,26.30
2022-08-16T08:02:55.586Z,26.40
2022-08-16T08:05:35.669Z,26.40
2022-08-16T08:08:11.594Z,26.60
2022-08-16T08:10:54.094Z,26.90
2022-08-16T08:13:28.880Z,27.30
2022-08-16T08:16:18.395Z,27.00
2022-08-16T08:18:50.090Z,27.60
2022-08-16T08:21:19.606Z,27.60
2022-08-16T08:23:57.710Z,28.20
2022-08-16T08:26:26.290Z,28.50
2022-08-16T08:29:01.091Z,28.80
2022-08-16T08:31:29.111Z,29.10
2022-08-16T08:33:58.562Z,29.50
2022-08-16T08:36:33.014Z,29.80
2022-08-16T08:39:03.968Z,29.40
2022-08-16T08:41:42.221Z,29.00
2022-08-16T08:44:29.174Z,28.70
2022-08-16T08:47:00.094Z,28.90
2022-08-16T08:49:46.308Z,29.70
2022-08-16T08:52:34.623Z,30.00
2022-08-16T08:55:10.723Z,30.10
2022-08-16T08:57:39.571Z,30.80
2022-08-16T09:00:13.433Z,30.30
2022-08-16T09:02:44.664Z,30.20
2022-08-16T09:05:14.805Z,30.40
2022-08-16T09:08:00.172Z,30.70
2022-08-16T09:10:30.693Z,31.20
2022-08-16T09:12:58.718Z,31.50
2022-08-16T09:15:32.562Z,31.40
2022-08-16T09:18:02.046Z,31.70
2022-08-16T09:20:58.497Z,31.50
2022-08-16T09:23:28.919Z,31.70
2022-08-16T09:25:58.438Z,32.30
2022-08-16T09:29:13.610Z,32.50
2022-08-16T09:31:14.849Z,32.30
2022-08-16T09:33:43.222Z,32.60
2022-08-16T09:36:12.175Z,32.70
2022-08-16T09:38:59.589Z,32.70
2022-08-16T09:41:29.347Z,32.80
2022-08-16T09:43:59.178Z,32.60
2022-08-16T09:46:45.904Z,33.30
2022-08-16T09:49:16.726Z,33.00
2022-08-16T09:51:48.191Z,33.50
2022-08-16T09:54:20.865Z,33.40
2022-08-16T09:56:52.806Z,33.90
2022-08-16T09:59:22.366Z,34.40
2022-08-16T10:01:54.482Z,34.50
2022-08-16T10:04:30.461Z,35.00
2022-08-16T10:07:14.746Z,35.00
2022-08-16T10:09:54.259Z,34.60
2022-08-16T10:12:43.255Z,34.20
2022-08-16T10:15:15.517Z,35.20
2022-08-16T10:17:45.622Z,35.10
2022-08-16T10:20:30.270Z,35.70
2022-08-16T10:23:05.462Z,35.70
2022-08-16T10:27:18.631Z,35.70
2022-08-16T10:28:28.121Z,35.60
2022-08-16T10:30:58.917Z,34.70
2022-08-16T10:33:29.630Z,34.10
2022-08-16T10:36:03.099Z,33.90
2022-08-16T10:38:32.823Z,33.90
2022-08-16T10:41:01.556Z,33.50
2022-08-16T10:43:30.998Z,33.30
2022-08-16T10:46:01.147Z,32.70
2022-08-16T10:48:29.480Z,32.40
2022-08-16T10:50:59.581Z,32.30
2022-08-16T10:53:32.819Z,32.20
2022-08-16T10:56:02.603Z,32.00
2022-08-16T10:58:34.307Z,31.40
2022-08-16T11:03:54.331Z,31.60
2022-08-16T11:06:27.772Z,31.60
2022-08-16T11:14:33.734Z,32.60
2022-08-16T11:17:09.272Z,33.20
2022-08-16T11:22:41.937Z,33.60
2022-08-16T11:26:07.093Z,33.70
2022-08-16T11:28:06.404Z,33.50
2022-08-16T11:30:38.786Z,33.80
2022-08-16T11:33:07.668Z,33.50
2022-08-16T11:38:51.018Z,33.40
2022-08-16T11:41:12.143Z,33.50
2022-08-16T11:43:41.786Z,32.60
2022-08-16T11:46:44.259Z,33.30
2022-08-16T11:49:00.885Z,33.70
2022-08-16T11:51:28.791Z,34.10
2022-08-16T11:53:56.700Z,33.90
2022-08-16T11:56:39.764Z,34.50
2022-08-16T11:59:12.988Z,34.90
2022-08-16T12:01:55.149Z,34.70
2022-08-16T12:04:23.703Z,35.10
2022-08-16T12:06:54.518Z,34.70
2022-08-16T12:09:24.086Z,34.80
2022-08-16T12:11:53.285Z,35.00
2022-08-16T12:14:22.861Z,35.40
2022-08-16T12:16:55.129Z,35.30
2022-08-16T12:19:34.003Z,35.60
2022-08-16T12:22:05.382Z,35.70
2022-08-16T12:24:51.166Z,35.60
2022-08-16T12:27:23.238Z,35.70
2022-08-16T12:29:52.301Z,36.20
2022-08-16T12:32:38.236Z,35.50
2022-08-16T12:35:12.156Z,35.70
2022-08-16T12:37:41.549Z,35.70
2022-08-16T12:40:23.949Z,36.20
2022-08-16T12:42:54.115Z,36.70
2022-08-16T12:45:22.855Z,36.70
2022-08-16T12:48:32.699Z,36.50
2022-08-16T12:50:57.974Z,36.90
2022-08-16T12:53:32.017Z,37.30
2022-08-16T12:56:00.643Z,37.20
2022-08-16T12:58:47.388Z,36.00
2022-08-16T13:01:18.484Z,36.10
2022-08-16T13:03:47.955Z,36.00
2022-08-16T13:06:19.919Z,36.10
2022-08-16T13:08:48.404Z,35.90
2022-08-16T13:11:17.864Z,36.30
2022-08-16T13:13:45.829Z,35.80
2022-08-16T13:16:21.466Z,35.90
2022-08-16T13:18:54.410Z,36.20
2022-08-16T13:21:24.371Z,36.50
2022-08-16T13:23:53.459Z,36.00
2022-08-16T13:26:23.694Z,36.30
2022-08-16T13:28:51.740Z,36.40
2022-08-16T13:31:19.649Z,36.20
2022-08-16T13:33:47.921Z,36.20
2022-08-16T13:36:32.171Z,36.10
2022-08-16T13:39:05.432Z,35.70
2022-08-16T13:41:33.329Z,35.40
2022-08-16T13:44:04.168Z,35.20
2022-08-16T13:46:33.252Z,35.50
2022-08-16T13:49:01.142Z,35.30
2022-08-16T13:51:30.955Z,34.60
2022-08-16T13:54:03.193Z,34.90
2022-08-16T13:56:38.161Z,35.00
2022-08-16T13:59:14.262Z,35.10
2022-08-16T14:01:54.472Z,35.30
2022-08-16T14:04:26.608Z,35.40
2022-08-16T14:06:57.125Z,35.40
2022-08-16T14:09:27.202Z,34.70
2022-08-16T14:11:56.333Z,34.40
2022-08-16T14:14:29.297Z,34.40
2022-08-16T14:16:58.096Z,34.40
2022-08-16T14:19:26.490Z,34.50
2022-08-16T14:22:14.023Z,34.10
2022-08-16T14:24:45.350Z,34.20
2022-08-16T14:27:14.995Z,34.00
2022-08-16T14:29:43.421Z,34.20
2022-08-16T14:32:13.093Z,34.30
2022-08-16T14:35:00.570Z,34.00
2022-08-16T14:37:31.151Z,33.50
2022-08-16T14:40:00.056Z,33.60
2022-08-16T14:42:29.019Z,33.20
2022-08-16T14:44:57.351Z,32.80
2022-08-16T14:47:31.674Z,32.70
2022-08-16T14:50:02.864Z,32.90
2022-08-16T14:52:54.621Z,33.00
2022-08-16T14:55:23.285Z,32.80
2022-08-16T14:57:54.215Z,32.30
2022-08-16T15:00:33.031Z,32.40
2022-08-16T15:03:10.597Z,32.50
2022-08-16T15:05:39.519Z,32.60
2022-08-16T15:08:10.000Z,32.60
2022-08-16T15:10:39.194Z,32.90
2022-08-16T15:13:15.051Z,32.90
2022-08-16T15:15:43.471Z,33.00
2022-08-16T15:18:13.912Z,33.40
2022-08-16T15:20:53.021Z,33.00
2022-08-16T15:23:25.102Z,32.90
2022-08-16T15:25:59.727Z,32.90
2022-08-16T15:28:32.239Z,32.50
2022-08-16T15:31:03.074Z,32.50
2022-08-16T15:33:32.939Z,32.60
2022-08-16T15:36:01.151Z,32.40
2022-08-16T15:38:55.150Z,32.60
2022-08-16T15:41:32.172Z,32.60
2022-08-16T15:44:05.587Z,32.60
2022-08-16T15:46:55.074Z,32.40
2022-08-16T15:49:34.641Z,32.40
2022-08-16T15:52:06.574Z,32.30
2022-08-16T15:54:52.352Z,32.50
2022-08-16T15:57:24.038Z,32.70
2022-08-16T15:59:56.350Z,32.70
2022-08-16T16:02:33.466Z,32.50
2022-08-16T16:05:02.378Z,32.50
2022-08-16T16:07:33.730Z,32.40
2022-08-16T16:10:05.890Z,32.10
2022-08-16T16:12:54.231Z,32.10
2022-08-16T16:15:23.455Z,32.00
2022-08-16T16:17:53.130Z,31.70
2022-08-16T16:20:21.462Z,31.60
2022-08-16T16:22:49.873Z,31.60
2022-08-16T16:25:20.239Z,31.70
2022-08-16T16:27:55.497Z,31.70
2022-08-16T16:30:38.248Z,31.90
2022-08-16T16:33:15.574Z,31.80
2022-08-16T16:35:54.968Z,32.00
2022-08-16T16:38:30.731Z,31.80
2022-08-16T16:41:02.151Z,31.80
2022-08-16T16:43:31.648Z,31.70
2022-08-16T16:46:00.401Z,31.70
2022-08-16T16:48:35.285Z,31.70
2022-08-16T16:51:09.062Z,31.60
2022-08-16T16:53:38.078Z,31.60
2022-08-16T16:56:19.586Z,31.50
2022-08-16T16:58:57.944Z,31.40
2022-08-16T17:01:35.010Z,31.30
2022-08-16T17:04:22.250Z,31.30
2022-08-16T17:06:53.371Z,31.30
2022-08-16T17:09:25.545Z,31.20
2022-08-16T17:11:56.388Z,31.10
2022-08-16T17:14:33.787Z,31.10
2022-08-16T17:17:04.892Z,31.10
2022-08-16T17:19:32.896Z,31.00
2022-08-16T17:22:00.995Z,31.00
2022-08-16T17:24:39.454Z,30.90
2022-08-16T17:27:09.553Z,30.80
2022-08-16T17:29:42.651Z,30.80
2022-08-16T17:32:33.616Z,30.80
2022-08-16T17:35:10.181Z,30.70
2022-08-16T17:37:48.773Z,30.60
2022-08-16T17:40:47.399Z,30.60
2022-08-16T17:43:19.166Z,30.50
2022-08-16T17:45:47.520Z,30.50
2022-08-16T17:48:15.721Z,30.50
2022-08-16T17:50:43.713Z,30.20
2022-08-16T17:53:12.272Z,30.10
2022-08-16T17:55:41.004Z,30.00
2022-08-16T17:58:22.541Z,29.90
2022-08-16T18:00:52.741Z,29.80
2022-08-16T18:04:07.480Z,29.70
2022-08-16T18:06:13.161Z,29.70
2022-08-16T18:08:41.459Z,29.40
2022-08-16T18:11:13.374Z,29.50
2022-08-16T18:13:43.298Z,29.40
2022-08-16T18:16:14.642Z,29.40
2022-08-16T18:18:42.744Z,29.40
2022-08-16T18:21:28.562Z,29.20
2022-08-16T18:23:56.463Z,29.20
2022-08-16T18:26:24.343Z,29.10
2022-08-16T18:28:52.247Z,29.00
2022-08-16T18:31:21.580Z,28.90
2022-08-16T18:33:55.554Z,28.80
2022-08-16T18:36:23.994Z,28.70
2022-08-16T18:38:52.558Z,28.50
2022-08-16T18:41:20.744Z,28.40
2022-08-16T18:44:23.513Z,28.30
2022-08-16T18:46:37.789Z,28.20
2022-08-16T18:49:05.715Z,28.10
2022-08-16T18:51:33.738Z,27.90
2022-08-16T18:54:02.017Z,27.90
2022-08-16T18:56:55.956Z,27.80
2022-08-16T18:59:18.015Z,27.60
2022-08-16T19:01:48.586Z,27.60
2022-08-16T19:04:56.152Z,27.50
2022-08-16T19:07:04.719Z,27.40
2022-08-16T19:09:32.597Z,27.30
2022-08-16T19:12:04.371Z,27.20
2022-08-16T19:14:32.283Z,27.10
2022-08-16T19:17:01.547Z,27.00
2022-08-16T19:19:29.387Z,26.90
2022-08-16T19:21:58.278Z,26.90
2022-08-16T19:24:29.180Z,26.70
2022-08-16T19:26:57.494Z,26.70
2022-08-16T19:29:25.398Z,26.50
2022-08-16T19:31:53.296Z,26.40
2022-08-16T19:34:22.522Z,26.40
2022-08-16T19:36:50.442Z,26.40
2022-08-16T19:39:18.410Z,26.30
2022-08-16T19:41:53.046Z,26.20
2022-08-16T19:44:22.263Z,26.10
2022-08-16T19:46:50.370Z,26.10
2022-08-16T19:49:18.369Z,26.00
2022-08-16T19:51:47.883Z,25.90
2022-08-16T19:54:16.235Z,25.90
2022-08-16T19:56:44.116Z,25.70
2022-08-16T19:59:21.584Z,25.70
2022-08-16T20:01:52.166Z,25.60
2022-08-16T20:04:21.510Z,25.60
2022-08-16T20:06:50.799Z,25.50
2022-08-16T20:09:20.646Z,25.50
2022-08-16T20:11:48.933Z,25.30
2022-08-16T20:14:24.775Z,25.20
2022-08-16T20:16:58.018Z,25.10
2022-08-16T20:19:27.379Z,25.10
2022-08-16T20:21:57.527Z,25.00
2022-08-16T20:24:35.050Z,25.00
2022-08-16T20:27:03.644Z,24.90
2022-08-16T20:29:31.562Z,24.80
2022-08-16T20:31:59.446Z,24.80
2022-08-16T20:34:27.419Z,24.80
2022-08-16T20:36:55.259Z,24.80
2022-08-16T20:39:24.639Z,24.60
2022-08-16T20:41:52.573Z,24.70
2022-08-16T20:44:22.919Z,24.50
2022-08-16T20:46:53.296Z,24.50
2022-08-16T20:49:21.206Z,24.50
2022-08-16T20:51:52.633Z,24.50
2022-08-16T20:54:25.263Z,24.50
2022-08-16T20:56:53.114Z,24.50
2022-08-16T20:59:21.052Z,24.40
2022-08-16T21:01:50.318Z,24.40
2022-08-16T21:04:19.484Z,24.30
2022-08-16T21:06:54.085Z,24.20
2022-08-16T21:09:23.756Z,24.20
2022-08-16T21:11:54.098Z,24.20
2022-08-16T21:14:21.962Z,24.20
2022-08-16T21:16:49.818Z,24.00
2022-08-16T21:19:17.696Z,24.00
2022-08-16T21:21:45.673Z,23.80
2022-08-16T21:24:14.145Z,23.80
2022-08-16T21:26:53.850Z,23.80
2022-08-16T21:29:26.185Z,23.70
2022-08-16T21:32:09.316Z,23.70
2022-08-16T21:34:37.201Z,23.70
2022-08-16T21:37:05.187Z,23.60
2022-08-16T21:39:33.321Z,23.50
2022-08-16T21:42:01.223Z,23.50
2022-08-16T21:44:31.165Z,23.50
2022-08-16T21:47:06.674Z,23.50
2022-08-16T21:49:36.864Z,23.40
2022-08-16T21:52:05.121Z,23.40
2022-08-16T21:54:33.032Z,23.30
2022-08-16T21:57:00.888Z,23.20
2022-08-16T21:59:30.087Z,23.20
2022-08-16T22:01:58.035Z,23.10
2022-08-16T22:04:36.920Z,23.10
2022-08-16T22:07:06.944Z,23.10
2022-08-16T22:09:34.896Z,23.00
2022-08-16T22:12:02.717Z,22.90
2022-08-16T22:14:31.921Z,22.90
2022-08-16T22:16:59.797Z,22.90
2022-08-16T22:19:27.733Z,22.90
2022-08-16T22:21:55.683Z,22.80
2022-08-16T22:24:23.540Z,22.90
2022-08-16T22:26:51.421Z,22.80
2022-08-16T22:29:19.254Z,22.80
2022-08-16T22:31:48.507Z,22.80
2022-08-16T22:34:16.419Z,22.80
2022-08-16T22:36:44.521Z,22.80
2022-08-16T22:39:13.327Z,22.70
2022-08-16T22:41:43.280Z,22.70
2022-08-16T22:44:11.161Z,22.70
2022-08-16T22:46:39.546Z,22.70
2022-08-16T22:49:09.096Z,22.70
2022-08-16T22:51:37.380Z,22.70
2022-08-16T22:54:40.962Z,22.60
2022-08-16T22:56:54.245Z,22.70
2022-08-16T22:59:24.856Z,22.60
2022-08-16T23:01:53.556Z,22.70
2022-08-16T23:04:23.871Z,22.60
2022-08-16T23:06:51.751Z,22.60
2022-08-16T23:09:19.807Z,22.60
2022-08-16T23:11:47.703Z,22.60
2022-08-16T23:14:16.328Z,22.60
2022-08-16T23:16:47.265Z,22.60
2022-08-16T23:19:16.174Z,22.60
2022-08-16T23:21:47.083Z,22.50
2022-08-16T23:24:19.361Z,22.60
2022-08-16T23:26:48.999Z,22.60
2022-08-16T23:29:24.912Z,22.50
2022-08-16T23:31:54.947Z,22.50
2022-08-16T23:34:22.894Z,22.50
2022-08-16T23:36:52.109Z,22.50
2022-08-16T23:39:19.998Z,22.50
2022-08-16T23:41:47.978Z,22.50
2022-08-16T23:44:55.432Z,22.40
2022-08-16T23:47:05.074Z,22.40
2022-08-16T23:49:56.076Z,22.40
2022-08-16T23:52:40.631Z,22.40
2022-08-16T23:55:10.260Z,22.50
2022-08-16T23:57:38.140Z,22.40
